sensor_id;sensor_type;location;lat;lon;timestamp;P1;durP1;ratioP1;P2;durP2;ratioP2
42864;SDS011;28511;42.680;23.252;2024-01-06T00:01:13;5.88;;;3.42;;
42864;SDS011;28511;42.680;23.252;2024-01-06T00:03:40;7.63;;;4.80;;
42864;SDS011;28511;42.680;23.252;2024-01-06T00:06:05;8.70;;;5.38;;
42864;SDS011;28511;42.680;23.252;2024-01-06T00:08:31;6.57;;;4.40;;
42864;SDS011;28511;42.680;23.252;2024-01-06T00:10:57;4.47;;;3.05;;
42864;SDS011;28511;42.680;23.252;2024-01-06T00:13:22;6.38;;;3.55;;
42864;SDS011;28511;42.680;23.252;2024-01-06T00:15:48;4.53;;;3.35;;
42864;SDS011;28511;42.680;23.252;2024-01-06T00:18:13;8.82;;;3.63;;
42864;SDS011;28511;42.680;23.252;2024-01-06T00:20:38;11.45;;;5.53;;
42864;SDS011;28511;42.680;23.252;2024-01-06T00:23:03;8.00;;;7.05;;
42864;SDS011;28511;42.680;23.252;2024-01-06T00:25:29;10.65;;;5.38;;
42864;SDS011;28511;42.680;23.252;2024-01-06T00:27:54;16.20;;;6.53;;
42864;SDS011;28511;42.680;23.252;2024-01-06T00:30:20;9.70;;;6.07;;
42864;SDS011;28511;42.680;23.252;2024-01-06T00:32:46;13.73;;;6.38;;
42864;SDS011;28511;42.680;23.252;2024-01-06T00:35:11;7.43;;;5.63;;
42864;SDS011;28511;42.680;23.252;2024-01-06T00:37:36;14.40;;;7.43;;
42864;SDS011;28511;42.680;23.252;2024-01-06T00:40:03;9.10;;;6.68;;
42864;SDS011;28511;42.680;23.252;2024-01-06T00:42:29;32.00;;;5.70;;
42864;SDS011;28511;42.680;23.252;2024-01-06T00:44:54;7.63;;;4.22;;
42864;SDS011;28511;42.680;23.252;2024-01-06T00:47:19;6.45;;;5.30;;
42864;SDS011;28511;42.680;23.252;2024-01-06T00:49:47;16.67;;;6.53;;
42864;SDS011;28511;42.680;23.252;2024-01-06T00:52:12;8.85;;;5.90;;
42864;SDS011;28511;42.680;23.252;2024-01-06T00:54:37;8.45;;;6.15;;
42864;SDS011;28511;42.680;23.252;2024-01-06T00:57:04;6.90;;;6.32;;
42864;SDS011;28511;42.680;23.252;2024-01-06T00:59:29;14.70;;;5.57;;
42864;SDS011;28511;42.680;23.252;2024-01-06T01:01:55;9.68;;;7.25;;
42864;SDS011;28511;42.680;23.252;2024-01-06T01:04:20;5.22;;;4.72;;
42864;SDS011;28511;42.680;23.252;2024-01-06T01:06:46;13.32;;;6.35;;
42864;SDS011;28511;42.680;23.252;2024-01-06T01:09:11;8.68;;;5.82;;
42864;SDS011;28511;42.680;23.252;2024-01-06T01:11:38;11.07;;;7.10;;
42864;SDS011;28511;42.680;23.252;2024-01-06T01:14:04;14.25;;;6.40;;
42864;SDS011;28511;42.680;23.252;2024-01-06T01:16:29;9.18;;;5.20;;
42864;SDS011;28511;42.680;23.252;2024-01-06T01:18:54;10.25;;;5.88;;
42864;SDS011;28511;42.680;23.252;2024-01-06T01:21:20;12.43;;;7.05;;
42864;SDS011;28511;42.680;23.252;2024-01-06T01:23:46;4.38;;;3.95;;
42864;SDS011;28511;42.680;23.252;2024-01-06T01:26:11;7.68;;;3.15;;
42864;SDS011;28511;42.680;23.252;2024-01-06T01:28:36;12.55;;;3.95;;
42864;SDS011;28511;42.680;23.252;2024-01-06T01:31:02;5.40;;;3.85;;
42864;SDS011;28511;42.680;23.252;2024-01-06T01:33:28;5.25;;;4.03;;
42864;SDS011;28511;42.680;23.252;2024-01-06T01:35:53;6.47;;;4.53;;
42864;SDS011;28511;42.680;23.252;2024-01-06T01:38:22;16.80;;;4.85;;
42864;SDS011;28511;42.680;23.252;2024-01-06T01:40:47;12.52;;;5.20;;
42864;SDS011;28511;42.680;23.252;2024-01-06T01:43:17;5.13;;;4.70;;
42864;SDS011;28511;42.680;23.252;2024-01-06T01:45:42;9.75;;;4.57;;
42864;SDS011;28511;42.680;23.252;2024-01-06T01:48:08;8.40;;;4.50;;
42864;SDS011;28511;42.680;23.252;2024-01-06T01:50:33;11.70;;;3.67;;
42864;SDS011;28511;42.680;23.252;2024-01-06T01:52:59;6.20;;;4.32;;
42864;SDS011;28511;42.680;23.252;2024-01-06T01:55:24;10.65;;;5.78;;
42864;SDS011;28511;42.680;23.252;2024-01-06T01:57:49;5.13;;;3.65;;
42864;SDS011;28511;42.680;23.252;2024-01-06T02:00:15;4.55;;;3.97;;
42864;SDS011;28511;42.680;23.252;2024-01-06T02:02:40;4.68;;;2.28;;
42864;SDS011;28511;42.680;23.252;2024-01-06T02:05:05;16.90;;;5.63;;
42864;SDS011;28511;42.680;23.252;2024-01-06T02:07:33;6.97;;;4.70;;
42864;SDS011;28511;42.680;23.252;2024-01-06T02:09:59;8.48;;;4.90;;
42864;SDS011;28511;42.680;23.252;2024-01-06T02:12:24;11.38;;;5.80;;
42864;SDS011;28511;42.680;23.252;2024-01-06T02:14:49;4.35;;;3.95;;
42864;SDS011;28511;42.680;23.252;2024-01-06T02:17:17;12.07;;;5.88;;
42864;SDS011;28511;42.680;23.252;2024-01-06T02:19:42;5.28;;;3.30;;
42864;SDS011;28511;42.680;23.252;2024-01-06T02:22:08;7.43;;;4.60;;
42864;SDS011;28511;42.680;23.252;2024-01-06T02:24:35;8.77;;;5.10;;
42864;SDS011;28511;42.680;23.252;2024-01-06T02:27:00;5.47;;;4.20;;
42864;SDS011;28511;42.680;23.252;2024-01-06T02:29:25;5.75;;;3.88;;
42864;SDS011;28511;42.680;23.252;2024-01-06T02:31:51;7.47;;;4.40;;
42864;SDS011;28511;42.680;23.252;2024-01-06T02:34:16;10.27;;;3.80;;
42864;SDS011;28511;42.680;23.252;2024-01-06T02:36:41;5.97;;;4.75;;
42864;SDS011;28511;42.680;23.252;2024-01-06T02:39:07;6.18;;;5.10;;
42864;SDS011;28511;42.680;23.252;2024-01-06T02:41:32;9.30;;;4.55;;
42864;SDS011;28511;42.680;23.252;2024-01-06T02:43:57;5.10;;;3.75;;
42864;SDS011;28511;42.680;23.252;2024-01-06T02:46:23;5.03;;;4.38;;
42864;SDS011;28511;42.680;23.252;2024-01-06T02:48:49;7.80;;;2.10;;
42864;SDS011;28511;42.680;23.252;2024-01-06T02:51:14;4.68;;;3.95;;
42864;SDS011;28511;42.680;23.252;2024-01-06T02:53:40;11.52;;;3.88;;
42864;SDS011;28511;42.680;23.252;2024-01-06T02:56:09;6.75;;;3.40;;
42864;SDS011;28511;42.680;23.252;2024-01-06T02:58:34;9.10;;;3.85;;
42864;SDS011;28511;42.680;23.252;2024-01-06T03:00:59;5.72;;;3.50;;
42864;SDS011;28511;42.680;23.252;2024-01-06T03:03:25;30.92;;;4.85;;
42864;SDS011;28511;42.680;23.252;2024-01-06T03:05:50;10.07;;;3.83;;
42864;SDS011;28511;42.680;23.252;2024-01-06T03:08:15;8.98;;;4.18;;
42864;SDS011;28511;42.680;23.252;2024-01-06T03:10:41;4.00;;;2.50;;
42864;SDS011;28511;42.680;23.252;2024-01-06T03:13:06;4.70;;;2.85;;
42864;SDS011;28511;42.680;23.252;2024-01-06T03:15:32;4.90;;;4.03;;
42864;SDS011;28511;42.680;23.252;2024-01-06T03:17:57;2.88;;;2.63;;
42864;SDS011;28511;42.680;23.252;2024-01-06T03:20:22;10.48;;;4.07;;
42864;SDS011;28511;42.680;23.252;2024-01-06T03:22:48;6.75;;;4.43;;
42864;SDS011;28511;42.680;23.252;2024-01-06T03:25:14;5.45;;;2.50;;
42864;SDS011;28511;42.680;23.252;2024-01-06T03:27:40;5.10;;;4.47;;
42864;SDS011;28511;42.680;23.252;2024-01-06T03:30:07;3.97;;;2.40;;
42864;SDS011;28511;42.680;23.252;2024-01-06T03:32:32;3.10;;;2.40;;
42864;SDS011;28511;42.680;23.252;2024-01-06T03:34:59;2.17;;;1.98;;
42864;SDS011;28511;42.680;23.252;2024-01-06T03:37:25;8.90;;;4.40;;
42864;SDS011;28511;42.680;23.252;2024-01-06T03:39:51;5.40;;;2.88;;
42864;SDS011;28511;42.680;23.252;2024-01-06T03:42:16;5.07;;;4.05;;
42864;SDS011;28511;42.680;23.252;2024-01-06T03:44:42;4.38;;;2.65;;
42864;SDS011;28511;42.680;23.252;2024-01-06T03:47:07;3.45;;;2.83;;
42864;SDS011;28511;42.680;23.252;2024-01-06T03:49:32;3.88;;;2.72;;
42864;SDS011;28511;42.680;23.252;2024-01-06T03:51:58;3.10;;;2.83;;
42864;SDS011;28511;42.680;23.252;2024-01-06T03:54:23;4.10;;;2.83;;
42864;SDS011;28511;42.680;23.252;2024-01-06T03:56:49;4.60;;;3.67;;
42864;SDS011;28511;42.680;23.252;2024-01-06T03:59:14;10.07;;;2.45;;
42864;SDS011;28511;42.680;23.252;2024-01-06T04:01:39;5.25;;;3.10;;
42864;SDS011;28511;42.680;23.252;2024-01-06T04:04:05;9.95;;;3.45;;
42864;SDS011;28511;42.680;23.252;2024-01-06T04:06:31;3.45;;;2.70;;
42864;SDS011;28511;42.680;23.252;2024-01-06T04:08:58;8.95;;;4.28;;
42864;SDS011;28511;42.680;23.252;2024-01-06T04:11:23;5.45;;;4.32;;
42864;SDS011;28511;42.680;23.252;2024-01-06T04:13:48;4.97;;;2.95;;
42864;SDS011;28511;42.680;23.252;2024-01-06T04:16:13;7.28;;;3.40;;
42864;SDS011;28511;42.680;23.252;2024-01-06T04:18:39;7.07;;;4.18;;
42864;SDS011;28511;42.680;23.252;2024-01-06T04:21:04;3.10;;;2.90;;
42864;SDS011;28511;42.680;23.252;2024-01-06T04:23:30;6.07;;;5.05;;
42864;SDS011;28511;42.680;23.252;2024-01-06T04:25:55;3.40;;;2.47;;
42864;SDS011;28511;42.680;23.252;2024-01-06T04:28:20;5.90;;;2.80;;
42864;SDS011;28511;42.680;23.252;2024-01-06T04:30:46;4.50;;;4.07;;
42864;SDS011;28511;42.680;23.252;2024-01-06T04:33:11;5.95;;;3.78;;
42864;SDS011;28511;42.680;23.252;2024-01-06T04:35:36;4.28;;;3.88;;
42864;SDS011;28511;42.680;23.252;2024-01-06T04:38:02;5.30;;;3.58;;
42864;SDS011;28511;42.680;23.252;2024-01-06T04:40:27;3.97;;;3.65;;
42864;SDS011;28511;42.680;23.252;2024-01-06T04:42:52;5.00;;;2.88;;
42864;SDS011;28511;42.680;23.252;2024-01-06T04:47:51;5.80;;;4.53;;
42864;SDS011;28511;42.680;23.252;2024-01-06T04:50:18;4.47;;;3.33;;
42864;SDS011;28511;42.680;23.252;2024-01-06T04:52:44;13.30;;;4.20;;
42864;SDS011;28511;42.680;23.252;2024-01-06T04:55:10;8.77;;;4.22;;
42864;SDS011;28511;42.680;23.252;2024-01-06T04:57:36;9.95;;;4.00;;
42864;SDS011;28511;42.680;23.252;2024-01-06T05:00:01;3.53;;;2.45;;
42864;SDS011;28511;42.680;23.252;2024-01-06T05:02:27;5.88;;;3.42;;
42864;SDS011;28511;42.680;23.252;2024-01-06T05:04:52;6.45;;;2.72;;
42864;SDS011;28511;42.680;23.252;2024-01-06T05:07:18;2.42;;;2.22;;
42864;SDS011;28511;42.680;23.252;2024-01-06T05:09:43;6.75;;;4.00;;
42864;SDS011;28511;42.680;23.252;2024-01-06T05:12:09;2.75;;;2.55;;
42864;SDS011;28511;42.680;23.252;2024-01-06T05:14:34;6.28;;;2.53;;
42864;SDS011;28511;42.680;23.252;2024-01-06T05:17:00;7.22;;;4.55;;
42864;SDS011;28511;42.680;23.252;2024-01-06T05:19:26;3.08;;;2.40;;
42864;SDS011;28511;42.680;23.252;2024-01-06T05:21:51;5.00;;;4.57;;
42864;SDS011;28511;42.680;23.252;2024-01-06T05:24:17;7.80;;;3.38;;
42864;SDS011;28511;42.680;23.252;2024-01-06T05:26:44;7.32;;;3.55;;
42864;SDS011;28511;42.680;23.252;2024-01-06T05:29:09;2.50;;;2.10;;
42864;SDS011;28511;42.680;23.252;2024-01-06T05:31:35;3.15;;;2.80;;
42864;SDS011;28511;42.680;23.252;2024-01-06T05:34:01;5.78;;;3.33;;
42864;SDS011;28511;42.680;23.252;2024-01-06T05:36:26;6.30;;;3.30;;
42864;SDS011;28511;42.680;23.252;2024-01-06T05:38:51;3.50;;;3.13;;
42864;SDS011;28511;42.680;23.252;2024-01-06T05:41:17;4.55;;;2.65;;
42864;SDS011;28511;42.680;23.252;2024-01-06T05:43:42;4.93;;;3.47;;
42864;SDS011;28511;42.680;23.252;2024-01-06T05:46:07;7.18;;;3.22;;
42864;SDS011;28511;42.680;23.252;2024-01-06T05:48:33;7.55;;;4.28;;
42864;SDS011;28511;42.680;23.252;2024-01-06T05:50:58;4.53;;;3.22;;
42864;SDS011;28511;42.680;23.252;2024-01-06T05:53:23;3.85;;;3.45;;
42864;SDS011;28511;42.680;23.252;2024-01-06T05:55:54;3.78;;;2.38;;
42864;SDS011;28511;42.680;23.252;2024-01-06T05:58:21;7.75;;;3.03;;
42864;SDS011;28511;42.680;23.252;2024-01-06T06:00:47;4.22;;;2.92;;
42864;SDS011;28511;42.680;23.252;2024-01-06T06:03:12;3.38;;;3.05;;
42864;SDS011;28511;42.680;23.252;2024-01-06T06:05:37;5.22;;;4.15;;
42864;SDS011;28511;42.680;23.252;2024-01-06T06:08:03;2.25;;;1.95;;
42864;SDS011;28511;42.680;23.252;2024-01-06T06:10:28;6.78;;;4.35;;
42864;SDS011;28511;42.680;23.252;2024-01-06T06:13:05;4.38;;;2.95;;
42864;SDS011;28511;42.680;23.252;2024-01-06T06:15:30;2.58;;;2.20;;
42864;SDS011;28511;42.680;23.252;2024-01-06T06:17:56;4.32;;;2.67;;
42864;SDS011;28511;42.680;23.252;2024-01-06T06:20:26;9.77;;;2.53;;
42864;SDS011;28511;42.680;23.252;2024-01-06T06:22:51;3.35;;;1.63;;
42864;SDS011;28511;42.680;23.252;2024-01-06T06:25:17;8.02;;;5.00;;
42864;SDS011;28511;42.680;23.252;2024-01-06T06:27:42;5.97;;;4.10;;
42864;SDS011;28511;42.680;23.252;2024-01-06T06:30:07;8.48;;;3.92;;
42864;SDS011;28511;42.680;23.252;2024-01-06T06:32:33;6.43;;;3.63;;
42864;SDS011;28511;42.680;23.252;2024-01-06T06:34:58;2.55;;;1.95;;
42864;SDS011;28511;42.680;23.252;2024-01-06T06:37:24;12.57;;;3.78;;
42864;SDS011;28511;42.680;23.252;2024-01-06T06:39:49;3.45;;;2.90;;
42864;SDS011;28511;42.680;23.252;2024-01-06T06:42:14;3.85;;;3.55;;
42864;SDS011;28511;42.680;23.252;2024-01-06T06:44:40;2.42;;;2.20;;
42864;SDS011;28511;42.680;23.252;2024-01-06T06:47:08;13.75;;;3.72;;
42864;SDS011;28511;42.680;23.252;2024-01-06T06:49:33;13.27;;;4.30;;
42864;SDS011;28511;42.680;23.252;2024-01-06T06:51:59;4.40;;;3.75;;
42864;SDS011;28511;42.680;23.252;2024-01-06T06:54:24;4.68;;;3.35;;
42864;SDS011;28511;42.680;23.252;2024-01-06T06:56:50;3.90;;;3.20;;
42864;SDS011;28511;42.680;23.252;2024-01-06T06:59:15;7.03;;;4.75;;
42864;SDS011;28511;42.680;23.252;2024-01-06T07:01:41;8.00;;;3.05;;
42864;SDS011;28511;42.680;23.252;2024-01-06T07:04:07;6.15;;;4.05;;
42864;SDS011;28511;42.680;23.252;2024-01-06T07:06:33;8.68;;;3.92;;
42864;SDS011;28511;42.680;23.252;2024-01-06T07:08:59;5.93;;;4.45;;
42864;SDS011;28511;42.680;23.252;2024-01-06T07:11:29;5.18;;;3.47;;
42864;SDS011;28511;42.680;23.252;2024-01-06T07:13:54;6.60;;;4.57;;
42864;SDS011;28511;42.680;23.252;2024-01-06T07:16:20;5.43;;;4.30;;
42864;SDS011;28511;42.680;23.252;2024-01-06T07:18:45;6.00;;;4.97;;
42864;SDS011;28511;42.680;23.252;2024-01-06T07:21:11;12.90;;;7.00;;
42864;SDS011;28511;42.680;23.252;2024-01-06T07:23:36;3.95;;;3.55;;
42864;SDS011;28511;42.680;23.252;2024-01-06T07:26:02;8.73;;;3.35;;
42864;SDS011;28511;42.680;23.252;2024-01-06T07:28:27;9.63;;;4.13;;
42864;SDS011;28511;42.680;23.252;2024-01-06T07:30:54;4.85;;;4.43;;
42864;SDS011;28511;42.680;23.252;2024-01-06T07:33:20;12.13;;;6.07;;
42864;SDS011;28511;42.680;23.252;2024-01-06T07:35:46;8.05;;;4.45;;
42864;SDS011;28511;42.680;23.252;2024-01-06T07:38:11;11.00;;;4.72;;
42864;SDS011;28511;42.680;23.252;2024-01-06T07:40:37;4.70;;;3.63;;
42864;SDS011;28511;42.680;23.252;2024-01-06T07:43:03;5.78;;;4.15;;
42864;SDS011;28511;42.680;23.252;2024-01-06T07:45:29;5.07;;;2.72;;
42864;SDS011;28511;42.680;23.252;2024-01-06T07:47:55;6.95;;;5.47;;
42864;SDS011;28511;42.680;23.252;2024-01-06T07:50:20;9.07;;;4.55;;
42864;SDS011;28511;42.680;23.252;2024-01-06T07:52:46;10.77;;;6.82;;
42864;SDS011;28511;42.680;23.252;2024-01-06T07:55:14;11.10;;;4.40;;
42864;SDS011;28511;42.680;23.252;2024-01-06T07:57:39;9.43;;;6.05;;
42864;SDS011;28511;42.680;23.252;2024-01-06T08:00:04;4.13;;;3.22;;
42864;SDS011;28511;42.680;23.252;2024-01-06T08:02:30;3.75;;;3.08;;
42864;SDS011;28511;42.680;23.252;2024-01-06T08:04:55;3.75;;;3.05;;
42864;SDS011;28511;42.680;23.252;2024-01-06T08:07:21;6.75;;;3.65;;
42864;SDS011;28511;42.680;23.252;2024-01-06T08:09:46;9.35;;;4.25;;
42864;SDS011;28511;42.680;23.252;2024-01-06T08:12:11;4.75;;;2.17;;
42864;SDS011;28511;42.680;23.252;2024-01-06T08:14:37;5.78;;;3.47;;
42864;SDS011;28511;42.680;23.252;2024-01-06T08:17:02;4.72;;;3.50;;
42864;SDS011;28511;42.680;23.252;2024-01-06T08:19:28;5.72;;;3.90;;
42864;SDS011;28511;42.680;23.252;2024-01-06T08:21:56;10.40;;;5.00;;
42864;SDS011;28511;42.680;23.252;2024-01-06T08:24:23;12.15;;;5.20;;
42864;SDS011;28511;42.680;23.252;2024-01-06T08:26:49;5.50;;;4.55;;
42864;SDS011;28511;42.680;23.252;2024-01-06T08:29:15;9.73;;;4.85;;
42864;SDS011;28511;42.680;23.252;2024-01-06T08:31:41;15.32;;;4.88;;
42864;SDS011;28511;42.680;23.252;2024-01-06T08:34:06;22.77;;;3.70;;
42864;SDS011;28511;42.680;23.252;2024-01-06T08:36:33;6.53;;;4.38;;
42864;SDS011;28511;42.680;23.252;2024-01-06T08:38:58;16.77;;;8.82;;
42864;SDS011;28511;42.680;23.252;2024-01-06T08:41:23;14.95;;;8.43;;
42864;SDS011;28511;42.680;23.252;2024-01-06T08:43:49;14.15;;;7.55;;
42864;SDS011;28511;42.680;23.252;2024-01-06T08:46:15;12.20;;;6.47;;
42864;SDS011;28511;42.680;23.252;2024-01-06T08:48:40;18.38;;;7.95;;
42864;SDS011;28511;42.680;23.252;2024-01-06T08:51:06;17.50;;;9.30;;
42864;SDS011;28511;42.680;23.252;2024-01-06T08:53:31;23.90;;;10.90;;
42864;SDS011;28511;42.680;23.252;2024-01-06T08:55:56;16.60;;;9.27;;
42864;SDS011;28511;42.680;23.252;2024-01-06T08:58:22;23.63;;;12.38;;
42864;SDS011;28511;42.680;23.252;2024-01-06T09:00:47;15.45;;;10.10;;
42864;SDS011;28511;42.680;23.252;2024-01-06T09:03:12;17.52;;;9.00;;
42864;SDS011;28511;42.680;23.252;2024-01-06T09:05:38;11.63;;;5.35;;
42864;SDS011;28511;42.680;23.252;2024-01-06T09:08:04;10.95;;;6.82;;
42864;SDS011;28511;42.680;23.252;2024-01-06T09:10:29;9.60;;;5.88;;
42864;SDS011;28511;42.680;23.252;2024-01-06T09:12:54;9.43;;;6.40;;
42864;SDS011;28511;42.680;23.252;2024-01-06T09:15:22;6.32;;;4.97;;
42864;SDS011;28511;42.680;23.252;2024-01-06T09:17:47;14.45;;;5.03;;
42864;SDS011;28511;42.680;23.252;2024-01-06T09:20:13;11.50;;;6.35;;
42864;SDS011;28511;42.680;23.252;2024-01-06T09:22:38;17.15;;;7.07;;
42864;SDS011;28511;42.680;23.252;2024-01-06T09:25:04;12.80;;;6.85;;
42864;SDS011;28511;42.680;23.252;2024-01-06T09:27:29;15.93;;;8.43;;
42864;SDS011;28511;42.680;23.252;2024-01-06T09:29:55;11.20;;;7.88;;
42864;SDS011;28511;42.680;23.252;2024-01-06T09:32:20;13.00;;;6.97;;
42864;SDS011;28511;42.680;23.252;2024-01-06T09:34:47;12.65;;;5.10;;
42864;SDS011;28511;42.680;23.252;2024-01-06T09:37:14;7.60;;;6.03;;
42864;SDS011;28511;42.680;23.252;2024-01-06T09:39:41;11.73;;;6.50;;
42864;SDS011;28511;42.680;23.252;2024-01-06T09:42:06;14.23;;;7.68;;
42864;SDS011;28511;42.680;23.252;2024-01-06T09:44:34;11.10;;;5.65;;
42864;SDS011;28511;42.680;23.252;2024-01-06T09:46:59;15.52;;;7.40;;
42864;SDS011;28511;42.680;23.252;2024-01-06T09:49:26;12.10;;;6.05;;
42864;SDS011;28511;42.680;23.252;2024-01-06T09:51:53;13.60;;;8.68;;
42864;SDS011;28511;42.680;23.252;2024-01-06T09:54:22;14.80;;;8.35;;
42864;SDS011;28511;42.680;23.252;2024-01-06T09:56:52;17.77;;;9.75;;
42864;SDS011;28511;42.680;23.252;2024-01-06T09:59:17;9.32;;;7.32;;
42864;SDS011;28511;42.680;23.252;2024-01-06T10:01:44;15.30;;;9.07;;
42864;SDS011;28511;42.680;23.252;2024-01-06T10:04:10;15.63;;;10.02;;
42864;SDS011;28511;42.680;23.252;2024-01-06T10:06:35;10.25;;;7.97;;
42864;SDS011;28511;42.680;23.252;2024-01-06T10:09:01;13.05;;;8.15;;
42864;SDS011;28511;42.680;23.252;2024-01-06T10:11:27;15.00;;;8.30;;
42864;SDS011;28511;42.680;23.252;2024-01-06T10:13:53;15.15;;;10.55;;
42864;SDS011;28511;42.680;23.252;2024-01-06T10:16:21;18.38;;;11.00;;
42864;SDS011;28511;42.680;23.252;2024-01-06T10:18:48;15.52;;;8.68;;
42864;SDS011;28511;42.680;23.252;2024-01-06T10:21:13;34.65;;;11.18;;
42864;SDS011;28511;42.680;23.252;2024-01-06T10:23:42;13.63;;;8.82;;
42864;SDS011;28511;42.680;23.252;2024-01-06T10:26:08;11.93;;;7.57;;
42864;SDS011;28511;42.680;23.252;2024-01-06T10:28:37;17.25;;;7.75;;
42864;SDS011;28511;42.680;23.252;2024-01-06T10:31:03;20.55;;;8.23;;
42864;SDS011;28511;42.680;23.252;2024-01-06T10:33:28;15.32;;;8.55;;
42864;SDS011;28511;42.680;23.252;2024-01-06T10:35:54;22.05;;;7.75;;
42864;SDS011;28511;42.680;23.252;2024-01-06T10:38:20;13.80;;;8.82;;
42864;SDS011;28511;42.680;23.252;2024-01-06T10:40:57;19.73;;;9.10;;
42864;SDS011;28511;42.680;23.252;2024-01-06T10:43:27;11.75;;;7.70;;
42864;SDS011;28511;42.680;23.252;2024-01-06T10:45:59;23.60;;;10.38;;
42864;SDS011;28511;42.680;23.252;2024-01-06T10:48:29;16.38;;;9.63;;
42864;SDS011;28511;42.680;23.252;2024-01-06T10:50:55;13.27;;;8.63;;
42864;SDS011;28511;42.680;23.252;2024-01-06T10:53:21;12.60;;;7.85;;
42864;SDS011;28511;42.680;23.252;2024-01-06T10:55:50;13.02;;;8.02;;
42864;SDS011;28511;42.680;23.252;2024-01-06T10:58:17;13.65;;;9.05;;
42864;SDS011;28511;42.680;23.252;2024-01-06T11:00:42;11.15;;;8.27;;
42864;SDS011;28511;42.680;23.252;2024-01-06T11:03:07;13.18;;;8.50;;
42864;SDS011;28511;42.680;23.252;2024-01-06T11:05:41;13.77;;;7.13;;
42864;SDS011;28511;42.680;23.252;2024-01-06T11:08:07;26.02;;;9.77;;
42864;SDS011;28511;42.680;23.252;2024-01-06T11:10:33;8.20;;;6.00;;
42864;SDS011;28511;42.680;23.252;2024-01-06T11:13:09;10.35;;;7.25;;
42864;SDS011;28511;42.680;23.252;2024-01-06T11:15:41;9.27;;;6.70;;
42864;SDS011;28511;42.680;23.252;2024-01-06T11:18:06;15.25;;;7.20;;
42864;SDS011;28511;42.680;23.252;2024-01-06T11:20:33;26.73;;;7.45;;
42864;SDS011;28511;42.680;23.252;2024-01-06T11:23:17;6.15;;;4.53;;
42864;SDS011;28511;42.680;23.252;2024-01-06T11:25:43;9.95;;;6.57;;
42864;SDS011;28511;42.680;23.252;2024-01-06T11:28:08;11.48;;;6.05;;
42864;SDS011;28511;42.680;23.252;2024-01-06T11:30:35;8.18;;;5.05;;
42864;SDS011;28511;42.680;23.252;2024-01-06T11:33:00;9.60;;;5.97;;
42864;SDS011;28511;42.680;23.252;2024-01-06T11:35:28;10.10;;;6.55;;
42864;SDS011;28511;42.680;23.252;2024-01-06T11:37:55;9.07;;;4.47;;
42864;SDS011;28511;42.680;23.252;2024-01-06T11:43:09;8.80;;;4.18;;
42864;SDS011;28511;42.680;23.252;2024-01-06T11:45:36;9.48;;;4.90;;
42864;SDS011;28511;42.680;23.252;2024-01-06T11:48:02;12.30;;;5.20;;
42864;SDS011;28511;42.680;23.252;2024-01-06T11:50:32;10.68;;;4.95;;
42864;SDS011;28511;42.680;23.252;2024-01-06T11:52:58;24.95;;;4.40;;
42864;SDS011;28511;42.680;23.252;2024-01-06T11:55:45;4.90;;;3.85;;
42864;SDS011;28511;42.680;23.252;2024-01-06T12:00:40;7.75;;;3.45;;
42864;SDS011;28511;42.680;23.252;2024-01-06T12:03:06;10.10;;;4.35;;
42864;SDS011;28511;42.680;23.252;2024-01-06T12:05:31;5.50;;;3.85;;
42864;SDS011;28511;42.680;23.252;2024-01-06T12:07:57;6.10;;;3.85;;
42864;SDS011;28511;42.680;23.252;2024-01-06T12:10:25;11.43;;;3.72;;
42864;SDS011;28511;42.680;23.252;2024-01-06T12:13:00;4.25;;;3.50;;
42864;SDS011;28511;42.680;23.252;2024-01-06T12:15:27;7.60;;;5.75;;
42864;SDS011;28511;42.680;23.252;2024-01-06T12:17:52;5.15;;;3.13;;
42864;SDS011;28511;42.680;23.252;2024-01-06T12:20:18;4.85;;;2.95;;
42864;SDS011;28511;42.680;23.252;2024-01-06T12:22:43;11.45;;;5.40;;
42864;SDS011;28511;42.680;23.252;2024-01-06T12:25:09;5.88;;;3.08;;
42864;SDS011;28511;42.680;23.252;2024-01-06T12:27:35;4.68;;;2.33;;
42864;SDS011;28511;42.680;23.252;2024-01-06T12:30:00;3.08;;;2.40;;
42864;SDS011;28511;42.680;23.252;2024-01-06T12:32:26;7.10;;;4.38;;
42864;SDS011;28511;42.680;23.252;2024-01-06T12:34:51;5.85;;;3.55;;
42864;SDS011;28511;42.680;23.252;2024-01-06T12:37:17;8.68;;;4.40;;
42864;SDS011;28511;42.680;23.252;2024-01-06T12:39:42;6.35;;;3.28;;
42864;SDS011;28511;42.680;23.252;2024-01-06T12:42:11;8.75;;;4.50;;
42864;SDS011;28511;42.680;23.252;2024-01-06T12:44:40;8.32;;;2.58;;
42864;SDS011;28511;42.680;23.252;2024-01-06T12:47:06;5.38;;;3.85;;
42864;SDS011;28511;42.680;23.252;2024-01-06T12:49:32;6.30;;;2.60;;
42864;SDS011;28511;42.680;23.252;2024-01-06T12:51:58;2.85;;;2.58;;
42864;SDS011;28511;42.680;23.252;2024-01-06T12:54:23;4.63;;;3.15;;
42864;SDS011;28511;42.680;23.252;2024-01-06T12:56:48;4.88;;;2.30;;
42864;SDS011;28511;42.680;23.252;2024-01-06T12:59:14;3.35;;;2.45;;
42864;SDS011;28511;42.680;23.252;2024-01-06T13:01:40;8.65;;;3.47;;
42864;SDS011;28511;42.680;23.252;2024-01-06T13:04:06;4.35;;;3.17;;
42864;SDS011;28511;42.680;23.252;2024-01-06T13:06:32;4.43;;;2.28;;
42864;SDS011;28511;42.680;23.252;2024-01-06T13:08:58;2.42;;;2.22;;
42864;SDS011;28511;42.680;23.252;2024-01-06T13:11:25;5.90;;;3.72;;
42864;SDS011;28511;42.680;23.252;2024-01-06T13:13:51;3.90;;;2.63;;
42864;SDS011;28511;42.680;23.252;2024-01-06T13:16:16;11.95;;;2.67;;
42864;SDS011;28511;42.680;23.252;2024-01-06T13:18:42;10.07;;;2.88;;
42864;SDS011;28511;42.680;23.252;2024-01-06T13:21:07;3.78;;;3.15;;
42864;SDS011;28511;42.680;23.252;2024-01-06T13:23:32;3.58;;;2.88;;
42864;SDS011;28511;42.680;23.252;2024-01-06T13:26:00;7.05;;;3.15;;
42864;SDS011;28511;42.680;23.252;2024-01-06T13:28:27;5.72;;;2.15;;
42864;SDS011;28511;42.680;23.252;2024-01-06T13:30:52;4.60;;;3.65;;
42864;SDS011;28511;42.680;23.252;2024-01-06T13:33:18;4.97;;;2.72;;
42864;SDS011;28511;42.680;23.252;2024-01-06T13:35:44;5.78;;;4.05;;
42864;SDS011;28511;42.680;23.252;2024-01-06T13:38:10;3.40;;;2.40;;
42864;SDS011;28511;42.680;23.252;2024-01-06T13:40:35;2.42;;;2.10;;
42864;SDS011;28511;42.680;23.252;2024-01-06T13:43:00;4.70;;;2.38;;
42864;SDS011;28511;42.680;23.252;2024-01-06T13:45:29;10.43;;;3.20;;
42864;SDS011;28511;42.680;23.252;2024-01-06T13:47:56;2.85;;;2.17;;
42864;SDS011;28511;42.680;23.252;2024-01-06T13:50:21;5.75;;;2.85;;
42864;SDS011;28511;42.680;23.252;2024-01-06T13:52:47;5.53;;;2.28;;
42864;SDS011;28511;42.680;23.252;2024-01-06T13:55:13;3.22;;;2.33;;
42864;SDS011;28511;42.680;23.252;2024-01-06T13:57:38;3.45;;;2.45;;
42864;SDS011;28511;42.680;23.252;2024-01-06T14:00:09;5.35;;;2.83;;
42864;SDS011;28511;42.680;23.252;2024-01-06T14:02:35;3.90;;;2.40;;
42864;SDS011;28511;42.680;23.252;2024-01-06T14:05:02;7.80;;;3.38;;
42864;SDS011;28511;42.680;23.252;2024-01-06T14:07:27;2.08;;;1.88;;
42864;SDS011;28511;42.680;23.252;2024-01-06T14:09:52;3.40;;;2.28;;
42864;SDS011;28511;42.680;23.252;2024-01-06T14:12:18;5.55;;;2.67;;
42864;SDS011;28511;42.680;23.252;2024-01-06T14:14:44;6.68;;;2.63;;
42864;SDS011;28511;42.680;23.252;2024-01-06T14:17:10;3.72;;;2.20;;
42864;SDS011;28511;42.680;23.252;2024-01-06T14:19:36;2.10;;;2.00;;
42864;SDS011;28511;42.680;23.252;2024-01-06T14:22:02;6.38;;;3.03;;
42864;SDS011;28511;42.680;23.252;2024-01-06T14:26:57;4.25;;;2.75;;
42864;SDS011;28511;42.680;23.252;2024-01-06T14:29:23;1.60;;;1.50;;
42864;SDS011;28511;42.680;23.252;2024-01-06T14:31:48;3.08;;;2.08;;
42864;SDS011;28511;42.680;23.252;2024-01-06T14:34:14;4.50;;;2.13;;